createdAt,value
2018-02-27T00:04:12.000Z,1017.946
2018-02-27T00:14:12.000Z,1017.958
2018-02-27T00:24:12.000Z,1017.956
2018-02-27T00:34:12.000Z,1017.928
2018-02-27T00:44:12.000Z,1017.868
2018-02-27T00:54:12.000Z,1017.824
2018-02-27T01:04:12.000Z,1017.737
2018-02-27T01:14:12.000Z,1017.703
2018-02-27T01:24:12.000Z,1017.678
2018-02-27T01:34:12.000Z,1017.633
2018-02-27T01:44:12.000Z,1017.502
2018-02-27T01:54:12.000Z,1017.346
2018-02-27T02:04:12.000Z,1017.345
2018-02-27T02:14:12.000Z,1017.171
2018-02-27T02:24:12.000Z,1017.083
2018-02-27T02:34:12.000Z,1016.995
2018-02-27T02:44:12.000Z,1016.924
2018-02-27T02:54:12.000Z,1016.793
2018-02-27T03:04:12.000Z,1016.798
2018-02-27T03:14:12.000Z,1016.672
2018-02-27T03:24:12.000Z,1016.546
2018-02-27T03:34:12.000Z,1016.495
2018-02-27T03:44:12.000Z,1016.477
2018-02-27T03:54:12.000Z,1016.383
2018-02-27T04:04:12.000Z,1016.341
2018-02-27T04:14:12.000Z,1016.304
2018-02-27T04:24:12.000Z,1016.307
2018-02-27T04:34:12.000Z,1016.263
2018-02-27T04:44:12.000Z,1016.265
2018-02-27T04:54:12.000Z,1016.34
2018-02-27T05:04:12.000Z,1016.311
2018-02-27T05:14:12.000Z,1016.317
2018-02-27T05:24:12.000Z,1016.286
2018-02-27T05:34:12.000Z,1016.244
2018-02-27T05:44:12.000Z,1016.171
2018-02-27T05:54:12.000Z,1016.211
2018-02-27T06:04:12.000Z,1016.244
2018-02-27T06:14:12.000Z,1016.39
2018-02-27T06:24:12.000Z,1016.393
2018-02-27T06:34:12.000Z,1016.389
2018-02-27T06:44:12.000Z,1016.392
2018-02-27T06:54:12.000Z,1016.377
2018-02-27T07:04:12.000Z,1016.346
2018-02-27T07:14:12.000Z,1016.318
2018-02-27T07:24:12.000Z,1016.373
2018-02-27T07:34:12.000Z,1016.303
2018-02-27T07:44:12.000Z,1016.332
2018-02-27T07:54:12.000Z,1016.319
2018-02-27T08:04:12.000Z,1016.299
2018-02-27T08:14:13.000Z,1016.191
2018-02-27T08:24:13.000Z,1016.177
2018-02-27T08:34:13.000Z,1016.215
2018-02-27T08:44:13.000Z,1016.146
2018-02-27T08:54:13.000Z,1016.043
2018-02-27T09:04:13.000Z,1015.943
2018-02-27T09:14:13.000Z,1015.819
2018-02-27T09:24:13.000Z,1015.759
2018-02-27T09:34:13.000Z,1015.709
2018-02-27T09:44:13.000Z,1015.609
2018-02-27T09:54:13.000Z,1015.584
2018-02-27T10:04:13.000Z,1015.542
2018-02-27T10:14:13.000Z,1015.525
2018-02-27T10:24:13.000Z,1015.478
2018-02-27T10:34:13.000Z,1015.434
2018-02-27T10:44:13.000Z,1015.367
2018-02-27T10:54:13.000Z,1015.299
2018-02-27T11:04:13.000Z,1015.227
2018-02-27T11:14:13.000Z,1015.142
2018-02-27T11:24:13.000Z,1015.015
2018-02-27T11:34:13.000Z,1014.944
2018-02-27T11:44:13.000Z,1014.881
2018-02-27T11:54:13.000Z,1014.75
2018-02-27T12:04:13.000Z,1014.721
2018-02-27T12:14:13.000Z,1014.617
2018-02-27T12:24:13.000Z,1014.445
2018-02-27T12:34:13.000Z,1014.317
2018-02-27T12:44:13.000Z,1014.205
2018-02-27T12:54:13.000Z,1014.083
2018-02-27T13:04:13.000Z,1013.93
2018-02-27T13:24:13.000Z,1013.697
2018-02-27T13:34:13.000Z,1013.605
2018-02-27T13:44:13.000Z,1013.555
2018-02-27T13:54:13.000Z,1013.509
2018-02-27T14:04:13.000Z,1013.371
2018-02-27T14:14:13.000Z,1013.236
2018-02-27T14:24:13.000Z,1013.08
2018-02-27T14:34:13.000Z,1012.965
2018-02-27T14:44:13.000Z,1012.922
2018-02-27T14:54:13.000Z,1012.87
2018-02-27T15:04:13.000Z,1012.847
2018-02-27T15:14:13.000Z,1012.765
2018-02-27T15:24:13.000Z,1012.668
2018-02-27T15:34:13.000Z,1012.61
2018-02-27T15:44:13.000Z,1012.533
2018-02-27T15:54:13.000Z,1012.5
2018-02-27T16:04:15.000Z,1012.519
2018-02-27T16:14:13.000Z,1012.557
2018-02-27T16:24:13.000Z,1012.558
2018-02-27T16:34:14.000Z,1012.573
2018-02-27T16:44:14.000Z,1012.57
2018-02-27T16:54:14.000Z,1012.577
2018-02-27T17:04:14.000Z,1012.644
2018-02-27T17:14:14.000Z,1012.739
2018-02-27T17:24:14.000Z,1012.721
2018-02-27T17:34:14.000Z,1012.764
2018-02-27T17:44:14.000Z,1012.821
2018-02-27T17:54:14.000Z,1012.771
2018-02-27T18:04:14.000Z,1012.736
2018-02-27T18:14:14.000Z,1012.701
2018-02-27T18:24:14.000Z,1012.654
2018-02-27T18:34:14.000Z,1012.646
2018-02-27T18:44:14.000Z,1012.664
2018-02-27T18:54:14.000Z,1012.621
2018-02-27T19:04:14.000Z,1012.687
2018-02-27T19:14:14.000Z,1012.653
2018-02-27T19:24:14.000Z,1012.68
2018-02-27T19:34:14.000Z,1012.669
2018-02-27T19:44:14.000Z,1012.719
2018-02-27T19:54:14.000Z,1012.765
2018-02-27T20:04:14.000Z,1012.803
2018-02-27T20:14:14.000Z,1012.767
2018-02-27T20:24:14.000Z,1012.718
2018-02-27T20:34:14.000Z,1012.762
2018-02-27T20:44:14.000Z,1012.726
2018-02-27T20:54:14.000Z,1012.798
2018-02-27T21:04:15.000Z,1012.84
2018-02-27T21:14:14.000Z,1012.873
2018-02-27T21:24:14.000Z,1012.863
2018-02-27T21:34:14.000Z,1012.851
2018-02-27T21:44:14.000Z,1012.821
2018-02-27T21:54:14.000Z,1012.854
2018-02-27T22:04:14.000Z,1012.891
2018-02-27T22:14:14.000Z,1012.873
2018-02-27T22:24:14.000Z,1012.918
2018-02-27T22:34:14.000Z,1012.994
2018-02-27T22:44:14.000Z,1012.988
2018-02-27T22:54:14.000Z,1013.006
2018-02-27T23:04:14.000Z,1012.988
2018-02-27T23:14:14.000Z,1013.097
2018-02-27T23:24:14.000Z,1013.25
2018-02-27T23:34:14.000Z,1013.332
2018-02-27T23:44:14.000Z,1013.388
2018-02-27T23:54:14.000Z,1013.432
